Time;durP1;ratioP1;P1;durP2;ratioP2;P2;SDS_P1;SDS_P2;PMS_P1;PMS_P2;Temp;Humidity;BMP_temperature;BMP_pressure;BME280_temperature;BME280_humidity;BME280_pressure;Samples;Min_cycle;Max_cycle;Signal;HPM_P1;HPM_P2
2021/05/03 00:00:08;;;;;;;1.35;1.30;;;;;;;17.46;48.46;101875.31;5042560;28;20045;-42
2021/05/03 00:02:34;;;;;;;1.55;1.45;;;;;;;17.46;48.46;101874.53;5042925;28;20102;-41
2021/05/03 00:05:00;;;;;;;1.50;1.40;;;;;;;17.46;48.26;101866.47;5041123;28;20754;-42
2021/05/03 00:07:25;;;;;;;1.70;1.50;;;;;;;17.45;48.42;101859.50;5041313;28;20041;-42
2021/05/03 00:09:50;;;;;;;1.92;1.50;;;;;;;17.45;48.50;101860.28;5041158;28;20041;-44
2021/05/03 00:12:16;;;;;;;3.33;1.48;;;;;;;17.45;48.22;101859.50;5042159;28;20033;-42
2021/05/03 00:14:41;;;;;;;1.45;1.35;;;;;;;17.45;48.39;101862.19;5043173;28;20041;-42
2021/05/03 00:17:06;;;;;;;1.42;1.40;;;;;;;17.43;48.30;101851.72;5042329;28;20037;-42
2021/05/03 00:19:32;;;;;;;1.52;1.20;;;;;;;17.43;48.38;101853.63;5041478;28;20106;-42
2021/05/03 00:21:57;;;;;;;1.52;1.42;;;;;;;17.41;48.48;101853.13;5041208;28;20284;-43
2021/05/03 00:24:22;;;;;;;1.35;1.25;;;;;;;17.41;48.59;101853.91;5007795;28;20048;-42
2021/05/03 00:26:48;;;;;;;1.40;1.30;;;;;;;17.41;48.38;101850.44;5042780;28;20036;-42
2021/05/03 00:29:13;;;;;;;1.92;1.20;;;;;;;17.41;48.61;101859.28;5024368;28;20033;-42
2021/05/03 00:31:39;;;;;;;1.65;1.50;;;;;;;17.38;48.66;101862.56;5035606;28;20039;-41
2021/05/03 00:34:04;;;;;;;1.58;1.40;;;;;;;17.39;48.43;101860.69;5024265;28;20033;-42
2021/05/03 00:36:29;;;;;;;1.20;1.20;;;;;;;17.38;48.28;101867.94;5027976;28;20040;-42
2021/05/03 00:38:55;;;;;;;2.65;1.50;;;;;;;17.37;48.38;101855.63;5074894;28;20500;-43
2021/05/03 00:41:20;;;;;;;1.65;1.25;;;;;;;17.37;48.87;101869.06;5057373;28;20820;-41
2021/05/03 00:43:46;;;;;;;3.58;1.48;;;;;;;17.35;48.73;101860.50;5041690;28;20040;-41
2021/05/03 00:46:16;;;;;;;1.40;1.40;;;;;;;17.36;48.53;101862.09;5039544;28;20037;-43
2021/05/03 00:48:42;;;;;;;2.65;1.60;;;;;;;17.36;48.81;101858.59;5040751;28;20556;-42
2021/05/03 00:51:07;;;;;;;1.50;1.40;;;;;;;17.36;48.54;101863.97;5014634;28;20049;-43
2021/05/03 00:53:32;;;;;;;1.80;1.70;;;;;;;17.35;48.48;101857.81;5024333;28;20051;-41
2021/05/03 00:55:58;;;;;;;1.25;1.23;;;;;;;17.33;48.51;101859.22;5024484;28;20413;-42
2021/05/03 00:58:23;;;;;;;1.38;1.27;;;;;;;17.32;48.59;101853.06;5025601;28;20033;-42
2021/05/03 01:00:49;;;;;;;1.70;1.60;;;;;;;17.31;48.53;101851.47;4997968;28;20056;-42
2021/05/03 01:03:14;;;;;;;1.55;1.45;;;;;;;17.32;48.68;101857.63;5044358;28;20037;-42
2021/05/03 01:05:39;;;;;;;1.92;1.20;;;;;;;17.32;48.35;101854.94;5046387;28;20045;-42
2021/05/03 01:08:05;;;;;;;1.80;1.40;;;;;;;17.30;48.48;101849.06;5043355;28;20040;-42
2021/05/03 01:10:30;;;;;;;1.17;1.17;;;;;;;17.30;48.25;101849.84;5044843;28;20033;-42
2021/05/03 01:12:56;;;;;;;1.30;1.30;;;;;;;17.29;48.25;101845.59;5044469;28;20479;-43
2021/05/03 01:15:24;;;;;;;1.23;1.23;;;;;;;17.28;48.56;101840.50;5032893;28;20121;-42
2021/05/03 01:18:03;;;;;;;1.45;1.35;;;;;;;17.28;48.57;101835.13;5024615;28;20894;-42
2021/05/03 01:20:30;;;;;;;2.20;1.42;;;;;;;17.29;48.57;101842.13;5044924;28;20041;-42
2021/05/03 01:22:57;;;;;;;2.10;1.40;;;;;;;17.28;48.64;101844.00;5044012;28;20047;-41
2021/05/03 01:25:27;;;;;;;1.60;1.50;;;;;;;17.29;48.39;101847.50;5043901;28;20033;-41
2021/05/03 01:27:52;;;;;;;2.03;1.33;;;;;;;17.28;48.45;101835.13;5043979;28;20044;-41
2021/05/03 01:30:18;;;;;;;3.42;1.42;;;;;;;17.28;48.58;101832.47;5025715;28;20051;-42
2021/05/03 01:32:43;;;;;;;1.40;1.30;;;;;;;17.27;48.45;101830.88;5057355;28;20065;-41
2021/05/03 01:35:10;;;;;;;1.35;1.30;;;;;;;17.23;48.48;101838.75;5025530;28;20499;-41
2021/05/03 01:37:35;;;;;;;2.35;1.30;;;;;;;17.26;48.69;101850.78;5023483;28;20115;-41
2021/05/03 01:40:00;;;;;;;1.55;1.45;;;;;;;17.23;48.27;101844.13;5024598;28;20425;-42
2021/05/03 01:42:26;;;;;;;1.25;1.15;;;;;;;17.23;49.11;101849.50;4989974;28;20044;-42
2021/05/03 01:44:59;;;;;;;1.75;1.60;;;;;;;17.23;48.63;101846.00;5040642;28;20053;-42
2021/05/03 01:47:24;;;;;;;1.77;1.40;;;;;;;17.23;48.48;101846.00;5025273;28;20499;-43
2021/05/03 01:49:49;;;;;;;1.58;1.30;;;;;;;17.22;48.49;101842.50;5006657;28;20088;-41
2021/05/03 01:52:15;;;;;;;2.97;1.52;;;;;;;17.23;48.48;101843.31;5024161;28;20033;-42
2021/05/03 01:54:40;;;;;;;1.80;1.70;;;;;;;17.21;48.41;101842.81;5025660;28;20037;-42
2021/05/03 01:57:06;;;;;;;1.33;1.33;;;;;;;17.21;48.60;101837.47;5024635;28;20310;-41
2021/05/03 01:59:34;;;;;;;1.40;1.30;;;;;;;17.19;48.56;101832.38;5023691;28;20041;-41
2021/05/03 02:01:59;;;;;;;1.50;1.40;;;;;;;17.18;48.45;101834.25;5023330;28;20186;-41
2021/05/03 02:04:25;;;;;;;1.40;1.30;;;;;;;17.17;48.21;101832.69;5005875;28;20442;-42
2021/05/03 02:06:50;;;;;;;2.90;1.40;;;;;;;17.17;48.73;101831.88;5023886;28;20026;-41
2021/05/03 02:09:15;;;;;;;1.50;1.40;;;;;;;17.16;48.57;101825.72;5023007;28;20034;-42
2021/05/03 02:11:41;;;;;;;1.40;1.30;;;;;;;17.16;48.56;101830.28;4990597;28;20571;-41
2021/05/03 02:14:06;;;;;;;1.27;1.27;;;;;;;17.14;48.51;101829.78;5024910;28;20048;-41
2021/05/03 02:16:32;;;;;;;1.48;1.40;;;;;;;17.16;48.35;101828.41;5023827;28;20797;-42
2021/05/03 02:18:58;;;;;;;1.70;1.50;;;;;;;17.15;48.58;101826.03;4988548;28;20129;-41
2021/05/03 02:21:23;;;;;;;1.60;1.50;;;;;;;17.14;48.52;101814.47;5023330;28;20103;-41
2021/05/03 02:23:48;;;;;;;2.05;1.75;;;;;;;17.14;48.77;101819.84;4987416;28;20408;-41
2021/05/03 02:26:14;;;;;;;1.73;1.63;;;;;;;17.14;48.39;101819.06;5004272;28;20044;-41
2021/05/03 02:28:40;;;;;;;1.52;1.42;;;;;;;17.13;48.52;101810.19;5023031;28;20071;-42
2021/05/03 02:31:06;;;;;;;2.20;1.70;;;;;;;17.12;48.15;101819.38;5022521;28;20551;-41
2021/05/03 02:33:31;;;;;;;1.30;1.30;;;;;;;17.10;48.48;101816.16;5005223;28;20504;-41
2021/05/03 02:35:56;;;;;;;1.70;1.60;;;;;;;17.11;48.33;101807.03;5023582;28;20040;-41
2021/05/03 02:38:23;;;;;;;2.15;1.40;;;;;;;17.10;48.38;101812.72;5008208;28;20734;-42
2021/05/03 02:40:49;;;;;;;1.48;1.40;;;;;;;17.09;48.54;101806.53;5059605;28;20029;-41
2021/05/03 02:43:14;;;;;;;2.25;1.40;;;;;;;17.09;48.43;101806.53;5025541;28;20076;-41
2021/05/03 02:45:39;;;;;;;1.52;1.50;;;;;;;17.08;48.35;101798.75;5059382;28;20041;-41
2021/05/03 02:48:05;;;;;;;2.70;1.52;;;;;;;17.07;48.30;101798.00;5041867;28;20045;-41
2021/05/03 02:50:30;;;;;;;1.90;1.80;;;;;;;17.09;48.40;101790.41;5041778;28;20725;-42
2021/05/03 02:52:55;;;;;;;1.65;1.55;;;;;;;17.07;48.69;101798.00;5042627;28;20029;-41
2021/05/03 02:55:21;;;;;;;1.60;1.50;;;;;;;17.07;48.61;101789.13;5033396;28;20035;-42
2021/05/03 02:57:47;;;;;;;1.60;1.50;;;;;;;17.06;48.31;101796.41;5000748;28;20383;-42
2021/05/03 03:00:21;;;;;;;1.33;1.33;;;;;;;17.07;48.67;101807.94;5022527;28;20037;-41
2021/05/03 03:02:46;;;;;;;1.70;1.60;;;;;;;17.04;48.25;101801.28;5021481;28;20037;-41
2021/05/03 03:05:12;;;;;;;1.48;1.40;;;;;;;17.05;48.30;101805.53;5006201;28;20094;-41
2021/05/03 03:07:37;;;;;;;1.60;1.50;;;;;;;17.03;48.69;101807.72;5022234;28;20026;-41
2021/05/03 03:10:03;;;;;;;2.17;1.70;;;;;;;17.02;48.62;101806.13;5022062;28;20055;-41
2021/05/03 03:12:28;;;;;;;1.98;1.88;;;;;;;17.03;48.25;101802.34;5022462;28;20407;-41
2021/05/03 03:14:54;;;;;;;1.98;1.88;;;;;;;17.03;48.65;101797.00;5021783;28;20045;-41
2021/05/03 03:17:19;;;;;;;5.90;1.80;;;;;;;17.03;48.83;101791.63;5022055;28;20051;-40
2021/05/03 03:19:44;;;;;;;2.58;1.83;;;;;;;17.01;48.62;101791.13;5005371;28;20270;-41
2021/05/03 03:22:10;;;;;;;1.85;1.85;;;;;;;17.01;48.60;101787.66;4989324;28;20029;-41
2021/05/03 03:24:35;;;;;;;1.92;1.88;;;;;;;17.00;48.63;101786.84;5005108;28;20969;-41
2021/05/03 03:27:01;;;;;;;1.98;1.88;;;;;;;17.01;49.00;101777.72;5005880;28;20048;-41
2021/05/03 03:29:26;;;;;;;1.63;1.60;;;;;;;17.00;48.62;101775.31;5022664;28;20103;-41
2021/05/03 03:31:51;;;;;;;1.92;1.70;;;;;;;17.00;48.57;101784.16;5005039;28;20110;-41
2021/05/03 03:34:17;;;;;;;2.08;1.98;;;;;;;16.98;48.50;101783.69;5023736;28;20094;-41
2021/05/03 03:36:42;;;;;;;2.45;2.10;;;;;;;16.99;48.91;101777.19;5023052;28;20037;-40
2021/05/03 03:39:08;;;;;;;1.65;1.65;;;;;;;16.99;48.72;101771.06;4989806;28;20424;-42
2021/05/03 03:41:33;;;;;;;1.80;1.70;;;;;;;16.97;48.58;101771.34;5006205;28;20041;-41
2021/05/03 03:43:59;;;;;;;1.90;1.80;;;;;;;16.97;48.45;101778.59;4989312;28;20762;-42
2021/05/03 03:46:25;;;;;;;2.00;1.90;;;;;;;16.98;48.60;101772.13;4989076;28;20037;-41
2021/05/03 03:48:50;;;;;;;2.08;1.98;;;;;;;16.96;48.34;101775.13;5056155;28;20079;-40
2021/05/03 03:51:15;;;;;;;2.15;2.05;;;;;;;16.95;48.48;101776.22;5023486;28;20056;-41
2021/05/03 03:53:41;;;;;;;2.08;1.98;;;;;;;16.97;48.69;101774.03;5022450;28;20040;-41
2021/05/03 03:56:06;;;;;;;2.25;1.88;;;;;;;16.97;48.46;101770.53;5023051;28;20652;-42
2021/05/03 03:58:32;;;;;;;2.72;2.10;;;;;;;16.96;48.29;101772.44;4989708;28;20410;-43
2021/05/03 04:00:57;;;;;;;2.50;2.05;;;;;;;16.96;48.60;101766.28;5021966;28;20437;-41
2021/05/03 04:03:24;;;;;;;3.05;2.10;;;;;;;16.95;48.65;101770.06;5021508;28;20043;-42
2021/05/03 04:08:43;;;;;;;2.17;1.92;;;;;;;16.94;48.51;101766.56;5021928;28;20038;-41
2021/05/03 04:11:34;;;;;;;2.00;1.98;;;;;;;16.93;48.31;101770.38;5022485;28;20049;-41
2021/05/03 04:27:05;;;;;;;3.97;2.08;;;;;;;16.93;48.36;101775.75;5022407;28;20037;-42
2021/05/03 04:29:30;;;;;;;2.97;2.17;;;;;;;16.92;48.58;101771.44;4993105;28;20053;-41
2021/05/03 04:31:56;;;;;;;2.17;2.05;;;;;;;16.93;48.58;101770.38;4992251;28;20037;-41
2021/05/03 04:34:21;;;;;;;2.28;2.08;;;;;;;16.92;48.38;101763.41;5029726;28;20043;-40
2021/05/03 04:36:46;;;;;;;2.50;2.30;;;;;;;16.92;48.54;101766.09;5046772;28;20043;-40
2021/05/03 04:39:12;;;;;;;2.65;2.45;;;;;;;16.93;48.48;101766.88;5037550;28;20051;-43
2021/05/03 04:41:37;;;;;;;2.50;2.40;;;;;;;16.94;48.23;101774.63;5038453;28;20041;-40
2021/05/03 04:44:03;;;;;;;2.65;2.38;;;;;;;16.93;48.51;101765.00;5044432;28;20037;-40
2021/05/03 04:46:28;;;;;;;2.22;2.15;;;;;;;16.93;48.13;101769.56;5041668;28;20034;-41
2021/05/03 04:48:54;;;;;;;2.22;2.13;;;;;;;16.92;48.38;101773.34;5025176;28;20495;-40
2021/05/03 04:51:19;;;;;;;2.53;2.40;;;;;;;16.94;48.33;101769.25;5008612;28;20034;-40
2021/05/03 04:53:44;;;;;;;2.50;2.40;;;;;;;16.96;48.62;101777.03;5025143;28;20096;-40
2021/05/03 04:56:10;;;;;;;2.30;2.20;;;;;;;16.95;48.24;101775.41;5007735;28;20414;-40
2021/05/03 04:58:35;;;;;;;2.53;2.33;;;;;;;16.96;48.02;101767.09;5026463;28;20044;-43
2021/05/03 05:01:00;;;;;;;2.30;2.20;;;;;;;16.97;48.44;101770.53;5023729;28;20511;-42
2021/05/03 05:03:26;;;;;;;2.78;2.58;;;;;;;16.94;48.30;101761.19;5023599;28;20042;-41
2021/05/03 05:05:52;;;;;;;2.50;2.40;;;;;;;16.96;48.26;101758.22;5024545;28;20045;-42
2021/05/03 05:08:18;;;;;;;2.85;2.63;;;;;;;16.96;48.41;101760.91;5025191;28;20045;-41
2021/05/03 05:10:43;;;;;;;2.42;2.22;;;;;;;16.96;48.48;101763.59;5024805;28;20044;-41
2021/05/03 05:13:09;;;;;;;3.80;2.20;;;;;;;16.95;48.18;101762.00;5041589;28;20037;-42
2021/05/03 05:15:34;;;;;;;2.28;2.15;;;;;;;16.96;48.21;101761.72;5008751;28;20049;-41
2021/05/03 05:17:59;;;;;;;2.45;2.35;;;;;;;16.96;48.37;101760.91;5057513;28;20034;-42
2021/05/03 05:20:25;;;;;;;3.00;2.70;;;;;;;17.00;48.65;101764.56;5040748;28;20512;-41
2021/05/03 05:22:50;;;;;;;3.13;2.60;;;;;;;16.99;48.13;101763.75;5025254;28;20038;-42
2021/05/03 05:25:15;;;;;;;2.55;2.38;;;;;;;17.00;48.27;101773.41;5025624;28;20522;-41
2021/05/03 05:27:41;;;;;;;2.65;2.55;;;;;;;17.00;48.13;101765.38;5026473;28;20040;-42
2021/05/03 05:30:07;;;;;;;3.80;2.70;;;;;;;17.01;48.13;101766.97;5025191;28;20040;-41
2021/05/03 05:32:32;;;;;;;2.97;2.78;;;;;;;17.01;48.04;101758.09;5025540;28;20038;-42
2021/05/03 05:34:58;;;;;;;2.33;2.20;;;;;;;17.02;48.57;101768.53;5042476;28;20038;-41
2021/05/03 05:37:23;;;;;;;2.80;2.47;;;;;;;17.00;47.90;101761.88;5008909;28;20102;-43
2021/05/03 05:39:49;;;;;;;3.88;2.63;;;;;;;17.00;47.89;101768.06;5028074;28;20400;-43
2021/05/03 05:42:14;;;;;;;2.28;2.17;;;;;;;17.01;48.23;101771.53;5025934;28;20044;-43
2021/05/03 05:44:39;;;;;;;3.20;2.90;;;;;;;17.02;48.03;101773.13;5027948;28;20048;-43
2021/05/03 05:47:05;;;;;;;2.78;2.55;;;;;;;16.99;48.50;101769.13;5026333;28;20494;-42
2021/05/03 05:49:31;;;;;;;2.70;2.50;;;;;;;17.01;48.07;101760.78;5028671;28;20037;-43
2021/05/03 05:51:56;;;;;;;4.18;3.10;;;;;;;17.00;48.03;101757.31;4993991;28;20053;-45
2021/05/03 05:54:22;;;;;;;2.97;2.83;;;;;;;17.02;48.00;101759.72;5026674;28;20155;-41
2021/05/03 05:56:47;;;;;;;2.80;2.60;;;;;;;17.04;48.06;101757.50;5026848;28;20037;-43
2021/05/03 05:59:14;;;;;;;2.72;2.63;;;;;;;17.05;48.15;101765.25;5027660;28;20042;-43
2021/05/03 06:01:39;;;;;;;2.78;2.58;;;;;;;17.06;48.05;101755.31;5009291;28;20038;-44
2021/05/03 06:04:05;;;;;;;2.65;2.53;;;;;;;17.05;48.23;101754.50;5025869;28;20037;-46
2021/05/03 06:06:30;;;;;;;3.20;3.00;;;;;;;17.06;48.33;101758.78;5025798;28;20044;-45
2021/05/03 06:08:56;;;;;;;2.60;2.50;;;;;;;17.08;48.00;101750.44;5009682;28;20490;-43
2021/05/03 06:11:21;;;;;;;2.20;2.10;;;;;;;17.09;48.33;101752.81;4992588;28;20041;-44
2021/05/03 06:13:47;;;;;;;2.80;2.60;;;;;;;17.07;47.83;101760.41;5027613;28;20033;-45
2021/05/03 06:16:12;;;;;;;3.20;2.50;;;;;;;17.04;47.98;101754.81;5008744;28;20045;-44
2021/05/03 06:18:38;;;;;;;2.90;2.70;;;;;;;17.10;48.01;101762.44;5025265;28;20046;-43
2021/05/03 06:21:03;;;;;;;2.42;2.30;;;;;;;17.11;47.75;101753.31;5025919;28;20041;-44
2021/05/03 06:23:29;;;;;;;3.58;2.40;;;;;;;17.12;47.83;101748.75;5008894;28;20033;-44
2021/05/03 06:25:54;;;;;;;2.42;2.33;;;;;;;17.14;47.84;101758.06;5008933;28;20492;-43
2021/05/03 06:28:21;;;;;;;4.10;2.55;;;;;;;17.07;48.09;101755.03;5023819;28;20053;-42
2021/05/03 06:30:53;;;;;;;2.70;2.60;;;;;;;17.08;48.17;101755.78;5013784;28;20060;-43
2021/05/03 06:33:18;;;;;;;3.13;2.47;;;;;;;17.11;47.79;101747.13;5016116;28;20201;-42
2021/05/03 06:35:44;;;;;;;3.70;2.88;;;;;;;17.15;47.87;101756.19;4992282;28;20526;-43
2021/05/03 06:38:09;;;;;;;3.70;2.80;;;;;;;17.13;47.79;101759.16;5041134;28;20032;-44
2021/05/03 06:40:35;;;;;;;2.88;2.40;;;;;;;17.17;47.85;101754.00;5046000;28;20044;-43
2021/05/03 06:43:00;;;;;;;2.85;2.58;;;;;;;17.14;47.65;101744.66;5025841;28;20043;-44
2021/05/03 06:45:25;;;;;;;3.55;2.60;;;;;;;17.15;47.96;101761.56;5026592;28;20041;-44
2021/05/03 06:47:51;;;;;;;2.65;2.25;;;;;;;17.16;47.52;101750.50;5026729;28;20037;-43
2021/05/03 06:50:17;;;;;;;3.45;3.15;;;;;;;17.08;47.51;101751.22;5025781;28;20883;-43
2021/05/03 06:52:45;;;;;;;2.92;2.70;;;;;;;17.16;47.81;101752.38;5075672;28;20103;-44
2021/05/03 06:55:14;;;;;;;2.78;2.33;;;;;;;17.12;47.27;101751.41;5075824;28;20037;-43
2021/05/03 06:57:43;;;;;;;6.35;2.60;;;;;;;17.14;47.27;101757.28;5025277;28;20758;-44
2021/05/03 07:00:09;;;;;;;6.90;2.47;;;;;;;17.07;47.39;101757.72;5027214;28;20065;-46
2021/05/03 07:02:35;;;;;;;3.08;2.78;;;;;;;17.06;47.75;101745.38;5059513;28;20048;-44
2021/05/03 07:05:00;;;;;;;5.30;2.40;;;;;;;17.09;47.43;101747.44;5076737;28;20033;-57
2021/05/03 07:07:26;;;;;;;4.80;2.47;;;;;;;17.10;47.44;101751.72;5059064;28;20037;-44
2021/05/03 07:09:51;;;;;;;4.47;3.17;;;;;;;17.03;47.29;101755.91;5028680;28;20400;-45
2021/05/03 07:12:19;;;;;;;3.22;3.00;;;;;;;16.99;46.63;101741.53;5023281;28;20107;-44
2021/05/03 07:14:45;;;;;;;4.63;3.00;;;;;;;16.97;46.96;101747.16;5020654;28;20092;-43
2021/05/03 07:17:10;;;;;;;2.70;2.50;;;;;;;17.09;47.35;101747.44;5022001;28;20527;-42
2021/05/03 07:19:36;;;;;;;2.90;2.70;;;;;;;17.11;46.55;101747.94;4989711;28;20102;-42
2021/05/03 07:22:05;;;;;;;4.88;2.85;;;;;;;17.14;47.01;101741.97;5036235;28;20133;-45
2021/05/03 07:24:31;;;;;;;4.55;2.90;;;;;;;17.08;46.46;101732.44;5038060;28;20491;-46
2021/05/03 07:26:56;;;;;;;3.20;3.00;;;;;;;17.03;46.36;101731.75;5024183;28;20049;-45
2021/05/03 07:29:22;;;;;;;3.30;3.00;;;;;;;17.05;46.54;101735.72;5022125;28;20106;-46
2021/05/03 07:31:47;;;;;;;4.80;3.22;;;;;;;17.09;47.74;101731.34;5005246;28;20168;-43
2021/05/03 07:34:14;;;;;;;4.68;3.30;;;;;;;17.19;48.64;101736.47;5040143;28;20041;-43
2021/05/03 07:36:40;;;;;;;6.88;3.67;;;;;;;17.14;48.03;101738.47;5042109;28;20044;-43
2021/05/03 07:39:06;;;;;;;3.95;3.00;;;;;;;17.27;47.83;101731.50;5025418;28;20032;-43
2021/05/03 07:41:32;;;;;;;3.53;3.20;;;;;;;17.23;47.43;101733.19;5059379;28;20060;-44
2021/05/03 07:43:58;;;;;;;6.55;3.10;;;;;;;17.30;47.72;101728.16;5059638;28;20098;-44
2021/05/03 07:46:26;;;;;;;3.47;3.20;;;;;;;17.22;46.89;101724.31;5004960;28;20186;-44
2021/05/03 07:48:56;;;;;;;3.63;3.33;;;;;;;17.21;46.66;101735.38;5022211;28;20041;-45
2021/05/03 07:51:21;;;;;;;4.75;4.30;;;;;;;17.05;47.01;101735.72;5019003;28;20040;-46
2021/05/03 07:53:47;;;;;;;6.55;4.10;;;;;;;17.02;46.82;101724.81;5002167;28;20045;-45
2021/05/03 07:56:15;;;;;;;5.38;4.97;;;;;;;16.97;46.56;101730.25;5007436;28;20064;-43
2021/05/03 07:58:44;;;;;;;5.40;5.00;;;;;;;16.96;46.73;101726.81;5037105;28;20044;-44
2021/05/03 08:01:09;;;;;;;5.63;5.10;;;;;;;17.06;46.30;101723.88;5015188;28;20041;-43
2021/05/03 08:03:39;;;;;;;5.95;5.43;;;;;;;16.99;46.78;101720.81;5043645;28;20041;-43
2021/05/03 08:06:12;;;;;;;6.00;5.60;;;;;;;16.98;46.81;101729.19;5024851;28;20116;-43
2021/05/03 08:08:37;;;;;;;7.25;6.63;;;;;;;16.81;47.05;101720.94;5008784;28;20038;-46
2021/05/03 08:11:02;;;;;;;6.85;6.25;;;;;;;16.95;47.15;101722.53;5041388;28;20033;-42
2021/05/03 08:13:29;;;;;;;7.15;6.55;;;;;;;16.96;46.34;101721.44;5043248;28;20782;-44
2021/05/03 08:15:57;;;;;;;7.38;5.75;;;;;;;17.10;46.58;101721.41;5060511;28;20105;-44
2021/05/03 08:18:22;;;;;;;7.35;6.65;;;;;;;17.07;46.09;101713.94;5040485;28;20044;-43
2021/05/03 08:20:48;;;;;;;6.80;6.20;;;;;;;17.16;46.19;101720.97;5043381;28;20045;-48
2021/05/03 08:23:19;;;;;;;6.10;5.63;;;;;;;17.20;46.56;101715.78;5032578;28;20041;-44
2021/05/03 08:25:48;;;;;;;7.72;6.68;;;;;;;17.13;49.53;101716.19;5035369;28;20033;-42
2021/05/03 08:28:14;;;;;;;8.18;7.38;;;;;;;17.02;49.72;101714.06;5025380;28;20041;-46
2021/05/03 08:30:40;;;;;;;12.15;7.47;;;;;;;17.14;50.46;101714.31;5043372;28;20043;-43
2021/05/03 08:33:05;;;;;;;8.23;7.07;;;;;;;17.13;50.82;101707.38;5009802;28;20037;-44
2021/05/03 08:35:31;;;;;;;17.70;9.70;;;;;;;17.08;51.16;101707.47;5041593;28;20048;-43
2021/05/03 08:37:56;;;;;;;24.35;9.70;;;;;;;17.06;50.52;101688.19;5023953;28;20037;-44
2021/05/03 08:40:21;;;;;;;14.13;8.55;;;;;;;17.21;49.15;101700.47;5026200;28;20047;-46
2021/05/03 08:42:47;;;;;;;13.07;9.02;;;;;;;17.20;49.00;101694.28;5037234;28;20676;-45
2021/05/03 08:45:12;;;;;;;13.30;8.82;;;;;;;17.17;48.60;101703.75;5006096;28;20038;-45
2021/05/03 08:47:40;;;;;;;10.05;8.82;;;;;;;17.15;48.59;101703.28;5022573;28;20060;-46
2021/05/03 08:50:20;;;;;;;20.42;9.95;;;;;;;17.12;47.62;101697.72;5019993;28;20079;-44
2021/05/03 08:52:47;;;;;;;10.60;8.95;;;;;;;17.13;47.78;101704.69;5036573;28;20771;-43
2021/05/03 08:55:13;;;;;;;14.63;8.52;;;;;;;17.18;47.47;101696.50;4987239;28;20525;-45
2021/05/03 08:57:40;;;;;;;12.40;9.15;;;;;;;17.07;47.28;101692.47;5021649;28;20030;-47
2021/05/03 09:00:09;;;;;;;14.23;9.05;;;;;;;17.21;47.33;101701.25;5039492;28;20036;-45
2021/05/03 09:02:36;;;;;;;8.63;7.90;;;;;;;17.23;47.08;101699.06;5006860;28;20115;-46
2021/05/03 09:05:01;;;;;;;9.32;8.43;;;;;;;17.17;47.25;101701.06;5023149;28;20064;-46
2021/05/03 09:07:26;;;;;;;9.95;9.05;;;;;;;17.23;47.39;101703.63;5019763;28;20080;-44
2021/05/03 09:09:52;;;;;;;9.25;8.45;;;;;;;17.25;47.45;101696.84;5039951;28;20033;-43
2021/05/03 09:12:19;;;;;;;10.20;8.90;;;;;;;17.29;47.44;101691.69;5041973;28;20033;-46
2021/05/03 09:14:52;;;;;;;11.20;9.15;;;;;;;17.38;47.45;101684.44;5027140;28;20509;-44
2021/05/03 09:17:30;;;;;;;9.40;8.48;;;;;;;17.39;48.26;101684.16;5046326;28;20048;-43
2021/05/03 09:19:57;;;;;;;9.65;8.75;;;;;;;17.46;47.84;101681.06;5009556;28;20057;-48
2021/05/03 09:22:31;;;;;;;9.30;8.57;;;;;;;17.52;48.07;101672.53;5023551;28;20048;-43
2021/05/03 09:25:18;;;;;;;10.70;8.48;;;;;;;17.47;47.50;101674.56;5008570;28;20029;-42
2021/05/03 09:27:43;;;;;;;10.18;9.15;;;;;;;17.52;48.23;101669.84;5012466;28;20041;-42
2021/05/03 09:30:09;;;;;;;9.23;8.43;;;;;;;17.60;47.59;101674.53;5037575;28;20041;-43
2021/05/03 09:32:34;;;;;;;9.55;8.75;;;;;;;17.58;47.76;101668.66;5041884;28;20056;-44
2021/05/03 09:34:59;;;;;;;12.45;8.68;;;;;;;17.69;47.52;101663.81;5042925;28;20055;-44
2021/05/03 09:37:35;;;;;;;8.68;7.63;;;;;;;17.91;47.69;101661.06;5042369;28;20047;-48
2021/05/03 09:40:10;;;;;;;8.77;8.18;;;;;;;18.11;48.25;101663.22;5029818;28;20521;-50
2021/05/03 09:42:41;;;;;;;;;;;;;;;18.18;48.16;101660.84;5037887;28;20041;-48
2021/05/03 09:45:07;;;;;;;8.80;8.20;;;;;;;18.24;47.81;101664.19;5023545;28;19928;-49
2021/05/03 09:47:33;;;;;;;9.23;8.43;;;;;;;18.15;47.83;101660.69;5024785;28;20042;-47
2021/05/03 09:50:03;;;;;;;10.85;9.77;;;;;;;18.21;48.00;101652.16;4991984;28;20064;-49
2021/05/03 09:52:28;;;;;;;10.30;9.43;;;;;;;18.26;47.97;101648.53;5000231;28;20215;-46
2021/05/03 09:54:53;;;;;;;9.38;8.68;;;;;;;18.32;47.83;101636.50;5025101;28;20038;-47
2021/05/03 09:57:19;;;;;;;10.02;9.25;;;;;;;18.27;47.95;101645.53;5008051;28;20060;-46
2021/05/03 09:59:45;;;;;;;9.43;8.73;;;;;;;18.41;47.70;101639.22;5025567;28;20132;-47
2021/05/03 10:02:28;;;;;;;9.95;9.13;;;;;;;18.40;47.45;101645.69;5039907;28;20037;-45
2021/05/03 10:05:02;;;;;;;11.07;10.18;;;;;;;18.41;47.11;101634.66;5037243;28;20045;-45
2021/05/03 10:07:28;;;;;;;;;;;;;;;18.48;46.75;101618.84;5019542;28;20033;-50
2021/05/03 10:10:02;;;;;;;10.38;9.50;;;;;;;18.53;46.29;101629.44;5034772;28;19932;-45
2021/05/03 10:12:28;;;;;;;11.53;10.50;;;;;;;18.53;46.49;101631.34;5037309;28;20060;-45
2021/05/03 10:14:53;;;;;;;10.38;9.50;;;;;;;18.47;46.23;101619.91;5035242;28;20691;-57
2021/05/03 10:17:19;;;;;;;10.80;9.90;;;;;;;18.63;46.05;101617.59;5011677;28;20037;-53
2021/05/03 10:19:44;;;;;;;10.85;9.68;;;;;;;18.58;46.03;101610.44;5041942;28;20103;-49
2021/05/03 10:22:15;;;;;;;10.05;9.20;;;;;;;18.71;45.81;101612.22;5023955;28;20033;-52
2021/05/03 10:24:41;;;;;;;10.98;10.05;;;;;;;18.65;45.34;101599.22;5024130;28;20068;-49
2021/05/03 10:27:06;;;;;;;10.38;9.57;;;;;;;18.74;45.35;101600.78;5017539;28;20048;-53
2021/05/03 10:29:41;;;;;;;10.52;9.55;;;;;;;18.77;45.18;101602.09;5023557;28;20045;-55
2021/05/03 10:32:08;;;;;;;9.45;8.85;;;;;;;18.79;44.31;101603.34;5014218;28;20031;-45
2021/05/03 10:34:37;;;;;;;10.38;9.52;;;;;;;18.85;44.61;101609.38;5025818;28;20033;-52
2021/05/03 10:37:03;;;;;;;10.30;9.38;;;;;;;18.76;44.33;101587.81;5031684;28;20045;-52
2021/05/03 10:39:29;;;;;;;9.73;9.10;;;;;;;18.82;43.63;101596.53;5025091;28;20098;-51
2021/05/03 10:42:08;;;;;;;9.80;9.07;;;;;;;18.82;43.34;101586.53;5038385;28;20056;-44
2021/05/03 10:44:35;;;;;;;9.45;8.75;;;;;;;18.71;43.42;101585.28;5019449;28;20711;-44
2021/05/03 10:47:08;;;;;;;9.13;8.43;;;;;;;18.51;43.47;101579.72;5019844;28;20054;-45
2021/05/03 10:49:45;;;;;;;9.37;8.60;;;;;;;18.44;42.83;101576.72;5033039;28;20059;-44
2021/05/03 10:52:13;;;;;;;8.90;8.20;;;;;;;18.45;42.88;101568.31;5018266;28;20038;-43
2021/05/03 10:57:08;;;;;;;8.48;7.75;;;;;;;18.43;42.71;101567.03;5032545;28;20499;-46
2021/05/03 10:59:50;;;;;;;8.40;7.70;;;;;;;18.75;42.71;101572.75;5034133;28;20039;-44
2021/05/03 11:02:19;;;;;;;8.32;7.53;;;;;;;18.57;42.30;101559.63;5035819;28;20551;-43
2021/05/03 11:05:32;;;;;;;9.20;8.23;;;;;;;18.70;41.83;101547.91;5037035;28;20048;-45
2021/05/03 11:08:04;;;;;;;8.27;7.57;;;;;;;18.66;42.20;101547.72;5033422;28;20045;-44
2021/05/03 11:11:03;;;;;;;8.43;7.75;;;;;;;18.66;42.09;101546.97;5039054;28;20123;-45
2021/05/03 11:13:41;;;;;;;8.85;8.05;;;;;;;18.64;42.10;101549.97;5037788;28;20851;-44
2021/05/03 11:16:29;;;;;;;7.65;6.93;;;;;;;18.79;41.53;101540.63;5037339;28;20045;-45
2021/05/03 11:18:55;;;;;;;8.32;7.63;;;;;;;18.79;41.61;101535.22;5050017;28;20470;-46
2021/05/03 11:21:45;;;;;;;7.95;7.45;;;;;;;18.93;41.89;101530.47;5006217;28;20152;-44
2021/05/03 11:24:23;;;;;;;7.18;6.78;;;;;;;18.90;41.50;101531.88;4999601;28;20155;-49
2021/05/03 11:29:53;;;;;;;7.35;6.93;;;;;;;18.92;41.59;101531.56;5027665;28;20147;-39
2021/05/03 11:32:19;;;;;;;7.82;7.22;;;;;;;18.83;41.93;101528.88;5012187;28;20080;-40
2021/05/03 11:34:57;;;;;;;7.55;6.82;;;;;;;18.84;42.07;101533.16;5022927;28;20044;-40
2021/05/03 11:37:32;;;;;;;8.95;6.63;;;;;;;18.91;42.45;101528.06;5016106;28;20372;-50
2021/05/03 11:43:20;;;;;;;7.70;7.07;;;;;;;18.80;42.16;101532.19;5034137;28;20565;-51
2021/05/03 11:45:45;;;;;;;7.15;6.43;;;;;;;18.96;42.67;101532.50;5041843;28;20086;-45
2021/05/03 11:48:10;;;;;;;6.82;6.20;;;;;;;18.92;42.73;101532.34;5037029;28;20052;-44